Time;durP1;ratioP1;P1;durP2;ratioP2;P2;SDS_P1;SDS_P2;PMS_P1;PMS_P2;Temp;Humidity;BMP_temperature;BMP_pressure;BME280_temperature;BME280_humidity;BME280_pressure;Samples;Min_cycle;Max_cycle;Signal;HPM_P1;HPM_P2
2021/05/21 00:01:38;;;;;;;2.35;1.27;;;;;;;16.39;54.76;99400.47;5028563;28;20327;-74
2021/05/21 00:04:03;;;;;;;3.00;1.30;;;;;;;16.25;54.34;99373.75;5040292;28;20025;-69
2021/05/21 00:06:29;;;;;;;2.75;1.63;;;;;;;16.45;54.51;99415.66;5027978;28;20037;-69
2021/05/21 00:08:55;;;;;;;1.40;1.10;;;;;;;16.41;54.71;99409.09;5036512;28;20009;-74
2021/05/21 00:11:20;;;;;;;1.98;1.00;;;;;;;16.46;54.17;99423.47;5033440;28;20045;-74
2021/05/21 00:13:46;;;;;;;2.83;1.20;;;;;;;16.27;54.48;99422.47;5026602;28;20025;-69
2021/05/21 00:16:11;;;;;;;2.60;1.50;;;;;;;16.51;53.82;99428.19;5037866;28;20097;-69
2021/05/21 00:18:37;;;;;;;3.00;1.20;;;;;;;16.25;54.21;99427.19;5033412;28;20034;-69
2021/05/21 00:21:02;;;;;;;3.65;1.20;;;;;;;16.23;54.44;99429.25;5037000;28;20029;-75
2021/05/21 00:23:28;;;;;;;1.73;1.25;;;;;;;16.23;54.17;99433.75;5025541;28;20097;-69
2021/05/21 00:25:53;;;;;;;4.63;1.30;;;;;;;16.22;54.32;99429.44;5032628;28;20033;-74
2021/05/21 00:28:19;;;;;;;2.40;1.00;;;;;;;16.24;53.97;99435.41;5034714;28;20033;-69
2021/05/21 00:30:44;;;;;;;1.65;1.30;;;;;;;16.21;53.84;99433.97;5029122;28;20044;-74
2021/05/21 00:33:10;;;;;;;3.10;1.23;;;;;;;16.30;53.60;99434.59;5036267;28;20032;-69
2021/05/21 00:35:35;;;;;;;8.00;1.20;;;;;;;16.24;53.42;99438.09;5038987;28;20333;-69
2021/05/21 00:38:00;;;;;;;4.25;1.20;;;;;;;16.14;53.72;99440.34;5037962;28;20021;-69
2021/05/21 00:40:26;;;;;;;1.85;1.50;;;;;;;16.13;53.94;99438.69;5043214;28;20034;-74
2021/05/21 00:42:52;;;;;;;1.70;1.40;;;;;;;15.84;54.90;99447.91;5038518;28;20021;-73
2021/05/21 00:45:17;;;;;;;1.13;1.02;;;;;;;15.96;55.58;99451.63;5029426;28;20061;-74
2021/05/21 00:47:43;;;;;;;2.67;1.20;;;;;;;15.90;56.58;99450.59;5040294;28;20219;-74
2021/05/21 00:50:08;;;;;;;2.47;1.35;;;;;;;15.98;58.08;99446.09;5035045;28;20207;-75
2021/05/21 00:52:37;;;;;;;2.33;1.08;;;;;;;15.79;60.34;99445.03;5028825;28;20013;-74
2021/05/21 00:55:05;;;;;;;2.65;1.20;;;;;;;15.91;61.84;99452.25;5026098;28;20037;-69
2021/05/21 00:57:30;;;;;;;2.28;1.13;;;;;;;15.92;62.51;99450.41;5035962;28;20022;-69
2021/05/21 00:59:56;;;;;;;1.67;1.30;;;;;;;15.93;62.64;99450.19;5029369;28;20212;-75
2021/05/21 01:02:21;;;;;;;1.38;1.27;;;;;;;15.80;64.15;99446.69;5030719;28;20224;-74
2021/05/21 01:04:47;;;;;;;1.73;1.40;;;;;;;15.83;64.42;99459.63;5035122;28;20045;-69
2021/05/21 01:07:12;;;;;;;2.35;1.58;;;;;;;15.85;64.01;99458.41;5039295;28;20021;-74
2021/05/21 01:09:38;;;;;;;4.53;3.10;;;;;;;15.90;63.43;99466.63;5030903;28;20341;-69
2021/05/21 01:12:03;;;;;;;3.45;2.50;;;;;;;15.86;64.80;99465.38;5035105;28;20209;-74
2021/05/21 01:14:29;;;;;;;4.82;2.20;;;;;;;15.85;65.19;99462.91;5036805;28;20032;-69
2021/05/21 01:16:55;;;;;;;5.63;2.03;;;;;;;15.92;65.99;99464.56;5039355;28;20025;-74
2021/05/21 01:19:21;;;;;;;9.30;2.15;;;;;;;15.93;66.44;99470.72;5042402;28;20030;-69
2021/05/21 01:21:47;;;;;;;6.22;2.28;;;;;;;15.86;68.08;99467.22;5033081;28;20025;-74
2021/05/21 01:24:12;;;;;;;4.57;2.10;;;;;;;15.92;66.65;99461.06;5024185;28;20030;-69
2021/05/21 01:26:38;;;;;;;3.97;2.10;;;;;;;16.01;67.23;99464.38;5028578;28;20156;-75
2021/05/21 01:29:06;;;;;;;3.85;1.98;;;;;;;15.99;67.54;99456.56;5031109;28;20029;-74
2021/05/21 01:31:35;;;;;;;3.72;2.53;;;;;;;16.09;66.87;99466.84;5023408;28;20106;-69
2021/05/21 01:34:01;;;;;;;4.53;2.67;;;;;;;16.03;69.28;99470.34;5030227;28;20063;-69
2021/05/21 01:36:26;;;;;;;7.55;2.67;;;;;;;15.98;68.72;99457.59;5033686;28;20029;-74
2021/05/21 01:39:09;;;;;;;10.20;3.35;;;;;;;15.94;69.09;99459.03;5027944;28;20030;-69
2021/05/21 01:41:35;;;;;;;6.60;3.35;;;;;;;15.83;68.32;99451.63;5032021;28;20304;-69
2021/05/21 01:44:03;;;;;;;3.95;3.03;;;;;;;15.78;69.46;99446.06;5031706;28;20037;-74
2021/05/21 01:46:28;;;;;;;7.40;3.15;;;;;;;15.86;69.51;99453.88;5036233;28;20037;-74
2021/05/21 01:48:54;;;;;;;3.40;3.10;;;;;;;15.71;69.64;99456.72;5027621;28;20052;-74
2021/05/21 01:51:19;;;;;;;4.25;3.30;;;;;;;15.67;69.62;99444.81;5029098;28;20041;-69
2021/05/21 01:53:45;;;;;;;3.60;3.17;;;;;;;15.63;70.24;99451.56;5028433;28;20064;-74
2021/05/21 01:56:10;;;;;;;4.22;3.08;;;;;;;15.55;69.79;99439.19;5030762;28;20049;-69
2021/05/21 01:58:36;;;;;;;4.78;3.58;;;;;;;15.50;71.15;99438.97;5033426;28;20322;-75
2021/05/21 02:01:02;;;;;;;6.35;3.38;;;;;;;15.64;69.73;99438.03;5024689;28;20057;-74
2021/05/21 02:03:29;;;;;;;4.78;3.30;;;;;;;15.47;70.36;99415.34;5031806;28;20033;-75
2021/05/21 02:05:55;;;;;;;5.72;3.55;;;;;;;15.68;69.01;99441.13;5033425;28;20041;-69
2021/05/21 02:08:24;;;;;;;3.53;2.92;;;;;;;15.67;69.14;99436.81;5033987;28;20033;-69
2021/05/21 02:10:50;;;;;;;3.20;2.88;;;;;;;15.76;69.23;99434.75;5031528;28;20046;-74
2021/05/21 02:13:16;;;;;;;4.07;3.15;;;;;;;15.85;68.63;99433.53;5028608;28;20085;-70
2021/05/21 02:15:42;;;;;;;4.47;2.50;;;;;;;15.94;67.71;99438.47;5030683;28;20110;-69
2021/05/21 02:18:07;;;;;;;4.57;2.85;;;;;;;15.86;68.45;99441.34;5034253;28;20025;-69
2021/05/21 02:20:32;;;;;;;3.75;2.90;;;;;;;15.93;67.61;99442.19;5028947;28;20327;-75
2021/05/21 02:22:58;;;;;;;6.00;2.85;;;;;;;15.91;68.18;99449.56;5030392;28;20068;-69
2021/05/21 02:25:24;;;;;;;3.78;2.58;;;;;;;15.78;68.65;99451.41;5035776;28;20037;-69
2021/05/21 02:27:51;;;;;;;3.35;2.95;;;;;;;15.91;67.18;99454.09;5041158;28;20029;-74
2021/05/21 02:30:16;;;;;;;5.97;2.88;;;;;;;15.87;68.34;99453.69;5038458;28;20068;-74
2021/05/21 02:32:42;;;;;;;5.72;3.05;;;;;;;15.91;67.76;99449.56;5037975;28;20227;-69
2021/05/21 02:35:10;;;;;;;5.40;2.85;;;;;;;15.82;68.76;99448.13;5037381;28;20165;-69
2021/05/21 02:37:36;;;;;;;3.75;2.83;;;;;;;15.77;68.71;99457.75;5037046;28;20053;-69
2021/05/21 02:40:04;;;;;;;2.88;2.35;;;;;;;15.93;67.86;99455.53;5033425;28;20049;-69
2021/05/21 02:42:29;;;;;;;2.47;2.25;;;;;;;16.07;66.53;99458.22;5033011;28;20267;-69
2021/05/21 02:44:55;;;;;;;5.00;2.22;;;;;;;16.12;66.01;99461.09;5034574;28;20025;-69
2021/05/21 02:47:20;;;;;;;3.58;2.30;;;;;;;16.00;66.82;99458.22;5031933;28;20285;-75
2021/05/21 02:49:46;;;;;;;3.60;2.60;;;;;;;15.89;67.67;99458.81;5034891;28;20037;-70
2021/05/21 02:52:11;;;;;;;3.20;2.17;;;;;;;15.95;67.90;99460.66;5026120;28;20021;-75
2021/05/21 02:54:37;;;;;;;3.63;2.42;;;;;;;15.81;68.23;99454.47;5026180;28;20211;-74
2021/05/21 02:57:02;;;;;;;3.17;2.60;;;;;;;15.81;68.48;99459.81;5029747;28;20033;-75
2021/05/21 02:59:27;;;;;;;4.47;2.72;;;;;;;15.90;67.48;99463.94;5027702;28;20319;-69
2021/05/21 03:01:53;;;;;;;3.22;2.80;;;;;;;15.78;67.82;99462.06;5027388;28;20048;-74
2021/05/21 03:04:18;;;;;;;3.90;2.75;;;;;;;15.73;68.88;99462.69;5022193;28;20030;-69
2021/05/21 03:06:44;;;;;;;4.05;3.08;;;;;;;15.79;68.86;99464.53;5020979;28;20029;-74
2021/05/21 03:09:09;;;;;;;3.60;2.88;;;;;;;15.83;69.08;99470.31;5032131;28;20028;-74
2021/05/21 03:11:35;;;;;;;4.00;2.78;;;;;;;15.82;68.88;99466.81;5023748;28;20026;-69
2021/05/21 03:14:00;;;;;;;3.38;2.80;;;;;;;15.82;68.95;99466.81;5027848;28;20096;-74
2021/05/21 03:16:26;;;;;;;3.60;2.72;;;;;;;15.82;68.53;99460.66;5032413;28;20316;-69
2021/05/21 03:18:51;;;;;;;4.53;2.88;;;;;;;15.83;68.65;99467.63;5032601;28;20383;-74
2021/05/21 03:21:16;;;;;;;2.92;2.47;;;;;;;15.84;68.03;99466.59;5024204;28;20030;-69
2021/05/21 03:23:42;;;;;;;3.10;2.80;;;;;;;15.76;68.23;99466.78;5026495;28;20032;-69
2021/05/21 03:26:07;;;;;;;4.57;3.20;;;;;;;15.74;69.25;99464.31;5027909;28;20025;-75
2021/05/21 03:28:33;;;;;;;3.42;2.63;;;;;;;15.75;68.89;99460.63;5028132;28;20067;-75
2021/05/21 03:30:58;;;;;;;3.20;2.75;;;;;;;15.71;68.49;99467.41;5028723;28;20033;-69
2021/05/21 03:33:24;;;;;;;4.97;2.65;;;;;;;15.66;68.37;99461.03;5034538;28;20029;-69
2021/05/21 03:35:49;;;;;;;3.08;2.67;;;;;;;15.56;69.22;99472.03;5031169;28;20323;-75
2021/05/21 03:38:15;;;;;;;5.70;2.85;;;;;;;15.54;69.05;99468.72;5034182;28;20096;-69
2021/05/21 03:40:42;;;;;;;3.85;3.13;;;;;;;15.39;69.84;99468.06;5034922;28;20263;-74
2021/05/21 03:43:08;;;;;;;4.93;3.20;;;;;;;15.39;70.28;99471.56;5032395;28;20030;-69
2021/05/21 03:45:34;;;;;;;3.15;2.67;;;;;;;15.40;70.38;99475.88;5032158;28;20291;-75
2021/05/21 03:48:00;;;;;;;4.05;2.22;;;;;;;15.56;68.84;99485.38;5025569;28;20108;-74
2021/05/21 03:50:25;;;;;;;5.03;2.30;;;;;;;15.64;69.26;99498.59;5029898;28;20026;-75
2021/05/21 03:52:51;;;;;;;2.35;2.15;;;;;;;15.60;69.16;99498.16;5038247;28;20346;-69
2021/05/21 03:55:19;;;;;;;3.30;2.20;;;;;;;15.53;69.84;99496.44;5040610;28;20212;-74
2021/05/21 03:57:45;;;;;;;3.15;2.55;;;;;;;15.36;70.34;99511.97;5033007;28;20097;-75
2021/05/21 04:00:17;;;;;;;3.10;2.80;;;;;;;15.34;70.33;99514.00;5034206;28;20045;-74
2021/05/21 04:02:42;;;;;;;4.03;2.83;;;;;;;15.55;69.36;99529.91;5034372;28;20280;-70
2021/05/21 04:05:09;;;;;;;4.85;2.28;;;;;;;15.30;70.55;99528.78;5041971;28;20042;-69
2021/05/21 04:07:34;;;;;;;2.90;2.10;;;;;;;15.37;69.06;99524.28;5041909;28;20235;-74
2021/05/21 04:10:00;;;;;;;3.15;1.98;;;;;;;15.28;69.38;99528.16;5045227;28;20072;-74
2021/05/21 04:12:25;;;;;;;3.25;2.00;;;;;;;15.35;68.47;99526.34;5043598;28;20029;-74
2021/05/21 04:14:52;;;;;;;4.80;2.65;;;;;;;15.39;68.73;99526.75;5043206;28;20037;-69
2021/05/21 04:17:19;;;;;;;3.13;2.80;;;;;;;15.26;69.13;99524.84;5042808;28;20761;-69
2021/05/21 04:19:45;;;;;;;5.43;3.17;;;;;;;15.22;68.59;99528.94;5031676;28;20404;-74
2021/05/21 04:22:11;;;;;;;10.30;3.97;;;;;;;15.29;68.44;99530.63;5040034;28;20021;-75
2021/05/21 04:24:36;;;;;;;5.72;3.85;;;;;;;15.21;68.75;99536.13;5043785;28;20097;-74
2021/05/21 04:27:02;;;;;;;3.25;2.83;;;;;;;15.19;68.40;99542.66;5039511;28;20034;-74
2021/05/21 04:29:27;;;;;;;3.88;3.22;;;;;;;15.25;68.09;99540.03;5024286;28;20068;-69
2021/05/21 04:31:53;;;;;;;3.70;2.65;;;;;;;15.24;68.34;99557.06;5023449;28;20080;-69
2021/05/21 04:34:18;;;;;;;5.03;3.22;;;;;;;15.18;68.25;99552.50;5026787;28;20140;-74
2021/05/21 04:36:43;;;;;;;4.53;3.38;;;;;;;15.17;68.19;99561.53;5025348;28;20279;-69
2021/05/21 04:39:09;;;;;;;5.88;3.00;;;;;;;15.19;67.75;99559.50;5023883;28;20052;-69
2021/05/21 04:41:34;;;;;;;4.72;2.70;;;;;;;15.22;67.68;99558.28;5028789;28;20105;-74
2021/05/21 04:44:00;;;;;;;3.42;3.00;;;;;;;15.17;68.00;99556.19;5033743;28;20025;-69
2021/05/21 04:46:25;;;;;;;3.67;2.60;;;;;;;15.22;67.78;99563.59;5024017;28;20057;-73
2021/05/21 04:48:51;;;;;;;8.77;3.05;;;;;;;15.33;66.68;99561.22;5023145;28;20030;-69
2021/05/21 04:51:16;;;;;;;3.90;3.10;;;;;;;15.24;67.08;99556.22;5037030;28;20100;-70
2021/05/21 04:53:42;;;;;;;4.90;3.53;;;;;;;15.20;67.43;99566.47;5035100;28;20205;-69
2021/05/21 04:56:08;;;;;;;6.07;3.92;;;;;;;15.28;66.86;99560.16;5027937;28;20256;-74
2021/05/21 04:58:35;;;;;;;3.63;3.28;;;;;;;15.12;68.27;99568.47;5029029;28;20052;-74
2021/05/21 05:01:00;;;;;;;5.55;3.58;;;;;;;15.21;67.46;99575.28;5036956;28;20041;-69
2021/05/21 05:03:26;;;;;;;5.95;3.95;;;;;;;15.31;67.09;99579.25;5025481;28;20089;-69
2021/05/21 05:05:51;;;;;;;7.38;3.38;;;;;;;15.41;66.80;99568.22;5031312;28;20037;-69
2021/05/21 05:08:17;;;;;;;4.13;3.42;;;;;;;15.63;66.32;99577.00;5038687;28;20083;-75
2021/05/21 05:10:47;;;;;;;4.55;3.17;;;;;;;15.68;65.73;99558.56;5036521;28;20079;-74
2021/05/21 05:13:13;;;;;;;4.80;3.35;;;;;;;15.67;65.94;99572.94;5028581;28;20022;-74
2021/05/21 05:15:38;;;;;;;5.53;3.15;;;;;;;15.73;65.80;99565.97;5028862;28;20048;-69
2021/05/21 05:18:05;;;;;;;3.75;3.25;;;;;;;15.84;65.40;99568.88;5025569;28;20052;-69
2021/05/21 05:20:31;;;;;;;4.90;3.22;;;;;;;15.76;65.05;99577.06;5032554;28;20040;-74
2021/05/21 05:41:54;;;;;;;6.20;3.45;;;;;;;16.73;61.69;99579.38;5161064;27;20576;-70
2021/05/21 05:44:20;;;;;;;5.05;3.47;;;;;;;16.90;61.14;99585.13;5145237;27;20027;-70
2021/05/21 05:46:46;;;;;;;5.95;3.15;;;;;;;16.82;61.46;99586.16;5146884;27;20080;-70
2021/05/21 05:49:12;;;;;;;4.18;3.60;;;;;;;16.82;60.98;99585.34;5145220;27;20027;-71
2021/05/21 05:51:37;;;;;;;6.35;3.10;;;;;;;16.82;62.13;99588.00;5145408;27;20086;-71
2021/05/21 05:54:03;;;;;;;3.95;3.10;;;;;;;16.83;61.97;99582.44;5151283;27;20026;-71
2021/05/21 05:56:29;;;;;;;4.45;2.90;;;;;;;16.88;61.46;99588.00;5150311;27;20060;-71
2021/05/21 05:58:54;;;;;;;4.10;2.90;;;;;;;16.96;61.31;99591.50;5144775;27;20122;-72
2021/05/21 06:01:19;;;;;;;4.85;3.05;;;;;;;17.08;60.62;99595.19;5138875;27;20034;-71
2021/05/21 06:03:45;;;;;;;5.32;2.55;;;;;;;17.08;60.07;99592.53;5138896;27;20274;-71
2021/05/21 06:06:11;;;;;;;4.22;2.70;;;;;;;17.17;60.03;99608.16;5139246;27;20030;-71
2021/05/21 06:08:37;;;;;;;4.72;2.80;;;;;;;17.46;59.75;99609.53;5138674;27;20072;-71
2021/05/21 06:11:02;;;;;;;4.60;2.38;;;;;;;17.48;59.03;99591.41;5140821;27;20289;-71
2021/05/21 06:13:28;;;;;;;2.55;2.30;;;;;;;17.63;57.40;99601.84;5138150;27;20035;-70
2021/05/21 06:15:54;;;;;;;4.20;2.33;;;;;;;17.78;57.94;99610.53;5134856;27;20046;-70
2021/05/21 06:18:19;;;;;;;3.67;2.47;;;;;;;17.85;57.66;99607.81;5131298;27;20042;-71
2021/05/21 06:20:45;;;;;;;3.17;2.60;;;;;;;18.02;57.51;99613.50;5132477;27;20132;-71
2021/05/21 06:23:11;;;;;;;5.50;2.25;;;;;;;18.21;57.05;99617.13;5132601;27;20091;-72
2021/05/21 06:28:05;;;;;;;6.07;2.20;;;;;;;18.23;56.90;99610.50;5132145;27;20028;-70
2021/05/21 06:30:30;;;;;;;4.65;2.40;;;;;;;18.26;56.30;99607.41;5132508;27;20028;-71
2021/05/21 06:32:56;;;;;;;2.47;2.10;;;;;;;18.35;55.88;99610.66;5133198;27;20100;-72
2021/05/21 06:35:22;;;;;;;3.17;2.15;;;;;;;18.36;55.71;99607.75;5132291;27;20043;-72
2021/05/21 06:37:48;;;;;;;3.70;2.20;;;;;;;18.62;55.04;99614.81;5134783;27;20015;-71
2021/05/21 06:40:14;;;;;;;2.95;1.80;;;;;;;18.64;54.84;99617.28;5137180;27;20040;-71
2021/05/21 06:42:39;;;;;;;2.10;1.88;;;;;;;18.92;54.72;99619.59;5124075;27;20046;-71
2021/05/21 06:45:05;;;;;;;4.18;2.42;;;;;;;19.17;54.83;99625.75;5120349;27;20036;-71
2021/05/21 06:47:31;;;;;;;3.35;2.10;;;;;;;19.35;53.86;99617.72;5119171;28;20027;-71
2021/05/21 06:49:56;;;;;;;3.63;2.03;;;;;;;19.43;53.77;99620.13;5119262;27;20038;-71
2021/05/21 06:52:22;;;;;;;8.27;2.78;;;;;;;19.78;53.04;99622.28;5119793;27;20027;-72
2021/05/21 06:54:47;;;;;;;4.90;1.75;;;;;;;19.69;52.26;99626.28;5118737;27;20035;-70
2021/05/21 06:57:13;;;;;;;2.55;1.88;;;;;;;19.84;52.25;99629.44;5119753;28;20028;-70
2021/05/21 06:59:39;;;;;;;2.30;2.10;;;;;;;19.64;51.74;99632.34;5118489;27;20288;-71
2021/05/21 07:02:05;;;;;;;1.92;1.83;;;;;;;19.84;51.78;99617.88;5101353;27;20038;-72
2021/05/21 07:04:30;;;;;;;2.28;1.60;;;;;;;20.15;50.36;99628.44;5118747;27;20039;-70
2021/05/21 07:06:56;;;;;;;3.13;2.00;;;;;;;20.53;50.40;99616.56;5120658;28;20092;-70
2021/05/21 07:09:21;;;;;;;2.17;1.92;;;;;;;20.78;48.37;99625.28;5123951;27;20041;-70
2021/05/21 07:11:46;;;;;;;1.95;1.60;;;;;;;20.75;47.81;99625.75;5123861;28;20328;-69
2021/05/21 07:14:13;;;;;;;2.22;1.60;;;;;;;21.09;47.73;99631.44;5104974;28;20317;-70
2021/05/21 07:16:39;;;;;;;2.38;1.95;;;;;;;21.17;46.61;99633.78;5123526;28;20058;-72
2021/05/21 07:19:04;;;;;;;1.95;1.60;;;;;;;21.42;46.66;99630.88;5123292;28;20399;-72
2021/05/21 07:21:30;;;;;;;1.98;1.63;;;;;;;21.67;46.21;99637.63;5123221;28;20032;-69
2021/05/21 07:23:56;;;;;;;2.75;1.98;;;;;;;21.70;44.30;99630.13;5123738;28;20035;-71
2021/05/21 07:26:21;;;;;;;1.80;1.50;;;;;;;21.67;43.34;99631.44;5123638;28;20254;-70
2021/05/21 07:28:47;;;;;;;2.42;1.75;;;;;;;21.54;41.81;99643.28;5123397;28;20036;-69
2021/05/21 07:31:14;;;;;;;2.53;1.90;;;;;;;21.68;42.85;99641.97;5123789;28;20031;-69
2021/05/21 07:33:39;;;;;;;2.58;1.92;;;;;;;21.83;43.26;99636.09;5123396;28;20321;-71
2021/05/21 07:36:05;;;;;;;1.88;1.70;;;;;;;22.14;43.19;99645.66;5123653;28;20046;-71
2021/05/21 07:38:32;;;;;;;2.97;1.70;;;;;;;22.33;43.21;99646.31;5123457;27;20050;-69
2021/05/21 07:40:58;;;;;;;2.65;1.77;;;;;;;22.55;42.59;99639.16;5123136;28;20039;-70
2021/05/21 07:43:23;;;;;;;5.70;1.70;;;;;;;22.25;42.05;99644.00;5123440;28;20042;-70
2021/05/21 07:45:49;;;;;;;1.90;1.50;;;;;;;22.30;40.54;99646.78;5123482;28;20063;-70
2021/05/21 07:48:15;;;;;;;1.58;1.48;;;;;;;22.49;41.57;99645.53;5123535;28;20031;-69
2021/05/21 07:50:40;;;;;;;3.22;1.75;;;;;;;22.69;41.13;99649.66;5103880;28;20111;-69
2021/05/21 07:53:07;;;;;;;1.60;1.50;;;;;;;22.79;41.14;99653.34;5122404;28;20032;-69
2021/05/21 07:55:33;;;;;;;1.67;1.58;;;;;;;22.50;40.62;99657.97;5124127;28;20204;-69
2021/05/21 07:57:58;;;;;;;3.03;1.73;;;;;;;22.36;40.54;99655.78;5122740;28;20027;-69
2021/05/21 08:00:24;;;;;;;2.00;1.80;;;;;;;21.93;41.02;99655.19;5122831;28;20105;-70
2021/05/21 08:02:49;;;;;;;2.05;1.80;;;;;;;21.77;40.48;99672.06;5123069;28;20280;-69
2021/05/21 08:05:15;;;;;;;2.10;1.60;;;;;;;21.38;42.47;99676.31;5122949;28;20027;-69
2021/05/21 08:07:40;;;;;;;4.45;1.60;;;;;;;21.28;41.17;99679.59;5122352;28;20053;-71
2021/05/21 08:10:08;;;;;;;1.77;1.65;;;;;;;21.23;41.51;99679.47;5103319;28;20060;-70
2021/05/21 08:12:33;;;;;;;2.90;1.85;;;;;;;21.11;41.84;99686.69;5122429;28;20054;-69
2021/05/21 08:14:59;;;;;;;3.33;2.50;;;;;;;21.16;41.95;99686.00;5122428;27;20035;-69
2021/05/21 08:17:24;;;;;;;4.88;1.92;;;;;;;21.23;42.49;99694.81;5122804;28;20069;-69
2021/05/21 08:19:50;;;;;;;2.50;2.30;;;;;;;21.24;42.58;99707.22;5122685;28;20084;-71
2021/05/21 08:22:16;;;;;;;3.72;2.15;;;;;;;21.00;43.17;99701.75;5104166;27;20032;-70
2021/05/21 08:24:41;;;;;;;3.83;2.25;;;;;;;20.57;45.39;99707.34;5121284;28;20062;-71
2021/05/21 08:27:08;;;;;;;2.47;2.28;;;;;;;20.50;44.96;99713.84;5122699;28;20056;-71
2021/05/21 08:29:33;;;;;;;2.92;2.42;;;;;;;20.68;44.60;99716.50;5121420;28;20309;-72
2021/05/21 08:32:01;;;;;;;3.45;2.85;;;;;;;20.66;43.69;99732.06;5122851;27;20031;-71
2021/05/21 08:34:26;;;;;;;5.93;2.80;;;;;;;20.35;43.75;99733.88;5122887;27;20088;-71
2021/05/21 08:36:52;;;;;;;3.38;3.08;;;;;;;20.32;43.73;99738.88;5123568;27;20322;-71
2021/05/21 08:39:17;;;;;;;3.13;2.80;;;;;;;20.55;43.84;99738.19;5123268;28;20278;-72
2021/05/21 08:41:48;;;;;;;3.33;2.88;;;;;;;20.61;44.28;99737.28;5124106;27;20076;-70
2021/05/21 08:44:17;;;;;;;4.70;2.80;;;;;;;20.86;46.59;99739.88;5123312;27;20028;-72
2021/05/21 08:46:42;;;;;;;4.05;3.65;;;;;;;20.99;46.16;99743.19;5124861;27;20035;-72
2021/05/21 08:49:08;;;;;;;4.88;3.72;;;;;;;21.06;43.97;99748.47;5122336;28;20019;-72
2021/05/21 08:51:34;;;;;;;4.95;4.00;;;;;;;21.05;45.05;99746.84;5122203;27;20019;-70
2021/05/21 08:54:00;;;;;;;5.60;3.20;;;;;;;20.94;43.40;99751.13;5122444;27;20063;-70
2021/05/21 08:56:26;;;;;;;3.38;3.00;;;;;;;20.75;42.81;99754.91;5122647;28;20027;-72
2021/05/21 08:58:52;;;;;;;3.85;3.33;;;;;;;21.29;44.19;99747.75;5104974;28;20024;-72
2021/05/21 09:01:19;;;;;;;6.88;3.35;;;;;;;21.67;41.94;99752.69;5123126;27;20058;-72
2021/05/21 09:03:46;;;;;;;5.28;3.50;;;;;;;22.12;44.00;99752.13;5105747;28;20027;-71
2021/05/21 09:06:20;;;;;;;6.80;3.55;;;;;;;22.78;40.00;99759.69;5123271;27;20197;-72
2021/05/21 09:08:59;;;;;;;5.80;3.60;;;;;;;22.86;40.72;99753.09;5123251;27;20023;-71
2021/05/21 09:11:36;;;;;;;4.32;2.88;;;;;;;22.50;40.89;99765.88;5121833;28;20043;-71
2021/05/21 09:14:14;;;;;;;5.13;3.40;;;;;;;22.51;41.32;99761.31;5118769;28;20027;-71
2021/05/21 09:16:41;;;;;;;3.55;3.25;;;;;;;22.79;40.20;99761.31;5116494;27;20047;-72
2021/05/21 09:19:08;;;;;;;5.43;3.50;;;;;;;22.96;38.68;99760.59;5098075;28;20041;-72
2021/05/21 09:22:06;;;;;;;3.08;2.78;;;;;;;23.36;38.12;99753.19;5114128;28;20102;-71
2021/05/21 09:24:37;;;;;;;3.65;3.13;;;;;;;23.83;36.66;99755.56;5098301;28;20338;-69
2021/05/21 09:27:04;;;;;;;6.35;3.08;;;;;;;23.71;34.85;99762.97;5095955;28;20034;-71
2021/05/21 09:29:35;;;;;;;4.38;3.10;;;;;;;23.31;35.20;99749.59;5111244;28;20039;-72
2021/05/21 09:32:01;;;;;;;4.05;2.58;;;;;;;23.29;34.36;99751.72;5114793;28;20213;-72
2021/05/21 09:34:32;;;;;;;2.67;2.47;;;;;;;23.01;37.58;99753.41;5114303;28;20027;-72
2021/05/21 09:36:58;;;;;;;5.22;2.60;;;;;;;22.80;38.17;99759.47;5132086;27;20056;-72
2021/05/21 09:39:24;;;;;;;3.08;2.55;;;;;;;22.52;37.16;99752.16;5113240;28;20073;-72
2021/05/21 09:41:53;;;;;;;2.75;2.45;;;;;;;22.26;39.54;99757.03;5117899;28;20035;-72
2021/05/21 09:44:22;;;;;;;2.83;2.63;;;;;;;22.07;37.80;99754.72;5121462;28;20035;-71
2021/05/21 09:46:50;;;;;;;4.13;2.65;;;;;;;21.98;40.37;99757.75;5103327;28;20354;-71
2021/05/21 09:49:34;;;;;;;4.10;2.80;;;;;;;21.91;39.88;99765.13;5102987;28;20043;-72
2021/05/21 09:52:04;;;;;;;7.65;2.70;;;;;;;21.84;39.75;99747.41;5118971;28;20106;-73
2021/05/21 09:54:54;;;;;;;2.60;2.40;;;;;;;22.11;38.71;99756.72;5115294;28;21197;-71
2021/05/21 09:57:34;;;;;;;4.53;2.47;;;;;;;22.18;37.73;99762.78;5112666;28;20438;-72
2021/05/21 10:00:00;;;;;;;4.03;2.75;;;;;;;21.76;38.99;99761.25;5113453;28;20359;-72
2021/05/21 10:02:31;;;;;;;2.80;1.88;;;;;;;21.46;39.06;99756.78;5116112;28;20253;-72
2021/05/21 10:04:58;;;;;;;9.07;2.13;;;;;;;21.44;40.24;99761.59;5113731;28;20059;-71
2021/05/21 10:07:24;;;;;;;3.15;1.80;;;;;;;21.59;39.14;99755.75;5115399;28;20226;-70
2021/05/21 10:09:50;;;;;;;2.85;1.55;;;;;;;21.64;39.43;99772.03;5118079;28;20271;-71
2021/05/21 10:12:17;;;;;;;4.35;1.60;;;;;;;21.55;37.98;99768.03;5120074;28;20098;-71
2021/05/21 10:14:48;;;;;;;2.17;1.30;;;;;;;21.78;36.80;99764.53;5116348;28;20962;-71
2021/05/21 10:17:23;;;;;;;3.33;1.10;;;;;;;21.18;37.63;99743.13;5115838;28;20225;-72
2021/05/21 10:19:50;;;;;;;3.85;1.02;;;;;;;21.29;38.64;99772.81;5117497;28;20302;-71
2021/05/21 10:22:38;;;;;;;2.63;1.35;;;;;;;21.18;39.40;99768.19;5116696;28;20451;-71
2021/05/21 10:25:15;;;;;;;3.40;1.00;;;;;;;21.30;39.41;99776.31;5121237;27;20023;-71
2021/05/21 10:27:43;;;;;;;1.45;1.35;;;;;;;21.29;37.85;99777.38;5123689;28;20032;-71
2021/05/21 10:30:14;;;;;;;2.05;1.20;;;;;;;21.26;38.32;99781.34;5119944;28;20084;-71
2021/05/21 10:32:39;;;;;;;1.33;1.10;;;;;;;21.31;37.39;99786.03;5084693;27;20309;-71
2021/05/21 10:35:16;;;;;;;11.27;1.48;;;;;;;21.61;39.38;99780.56;5118255;27;20039;-71
2021/05/21 10:37:42;;;;;;;1.40;1.10;;;;;;;21.71;36.51;99793.47;5117803;27;20032;-71
2021/05/21 10:40:24;;;;;;;4.22;1.10;;;;;;;21.69;36.12;99796.41;5118617;27;20050;-71
2021/05/21 10:42:52;;;;;;;1.30;0.90;;;;;;;21.83;36.31;99794.28;5116544;28;20019;-71
2021/05/21 10:45:21;;;;;;;9.40;2.17;;;;;;;21.88;38.13;99789.88;5122219;28;20031;-70
2021/05/21 10:47:58;;;;;;;1.35;1.25;;;;;;;22.20;37.50;99795.75;5123379;28;20028;-71
2021/05/21 10:50:36;;;;;;;2.53;1.30;;;;;;;22.18;37.29;99791.66;5118409;28;20039;-70
2021/05/21 10:53:04;;;;;;;1.70;1.00;;;;;;;22.20;36.14;99784.13;5118768;27;20358;-71
2021/05/21 10:56:03;;;;;;;2.30;1.00;;;;;;;22.02;36.49;99793.16;5117066;27;20115;-71
2021/05/21 10:58:34;;;;;;;2.28;1.00;;;;;;;22.17;35.89;99790.81;5083023;27;20329;-71
2021/05/21 11:01:19;;;;;;;1.20;1.10;;;;;;;22.30;35.02;99801.34;5116941;27;20034;-70
2021/05/21 11:03:57;;;;;;;1.30;1.20;;;;;;;22.19;36.55;99795.97;5122448;28;20026;-71
2021/05/21 11:06:23;;;;;;;1.00;0.90;;;;;;;22.23;34.85;99806.06;5122767;28;20035;-71
2021/05/21 11:08:49;;;;;;;1.30;1.20;;;;;;;22.22;34.99;99806.28;5117245;27;20031;-70
2021/05/21 11:11:15;;;;;;;1.25;1.15;;;;;;;22.44;36.55;99806.50;5117585;27;20343;-70
2021/05/21 11:14:01;;;;;;;5.70;1.90;;;;;;;22.44;35.51;99811.88;5118499;27;20055;-70
2021/05/21 11:16:32;;;;;;;2.97;1.38;;;;;;;22.35;35.21;99814.13;5116855;27;20036;-71
2021/05/21 11:19:04;;;;;;;2.30;1.77;;;;;;;22.27;35.53;99817.19;5132031;27;20194;-71
2021/05/21 11:21:32;;;;;;;1.85;1.75;;;;;;;21.98;36.29;99827.03;5116958;27;20212;-71
2021/05/21 11:24:06;;;;;;;3.55;1.55;;;;;;;21.78;36.91;99827.34;5102627;28;20031;-71
2021/05/21 11:26:38;;;;;;;1.98;1.45;;;;;;;21.70;36.58;99833.06;5122448;27;20035;-71
2021/05/21 11:29:07;;;;;;;3.47;2.00;;;;;;;21.52;37.76;99823.19;5117364;27;20033;-71
2021/05/21 11:31:39;;;;;;;5.13;2.30;;;;;;;21.79;37.94;99825.47;5117343;27;20054;-71
2021/05/21 11:34:09;;;;;;;4.10;1.70;;;;;;;22.16;35.73;99828.81;5117487;27;20100;-71
2021/05/21 11:36:34;;;;;;;2.80;1.48;;;;;;;21.89;35.49;99834.66;5118053;27;20090;-71
2021/05/21 11:39:02;;;;;;;1.88;1.23;;;;;;;21.92;34.91;99831.47;5116794;27;20058;-71
2021/05/21 11:41:30;;;;;;;2.40;1.55;;;;;;;22.02;35.86;99830.91;5119189;27;20043;-71
2021/05/21 11:44:02;;;;;;;3.85;2.10;;;;;;;22.35;35.37;99848.38;5118642;27;20035;-71
2021/05/21 11:46:27;;;;;;;1.73;1.63;;;;;;;22.42;35.65;99843.69;5118320;27;21928;-71
2021/05/21 11:48:53;;;;;;;1.30;1.15;;;;;;;22.28;35.26;99845.81;5115223;28;20023;-71
2021/05/21 11:51:24;;;;;;;1.25;1.15;;;;;;;22.04;34.80;99844.19;5117422;27;20080;-71
2021/05/21 11:53:55;;;;;;;3.50;1.40;;;;;;;22.29;34.16;99852.84;5098902;28;20023;-71
2021/05/21 11:56:36;;;;;;;1.30;1.20;;;;;;;22.26;36.14;99848.75;5117162;27;20037;-71